createdAt,value
2022-07-28T00:00:56.149Z,100190.19
2022-07-28T00:03:22.858Z,100194.00
2022-07-28T00:05:49.488Z,100189.16
2022-07-28T00:08:16.677Z,100186.63
2022-07-28T00:10:43.271Z,100194.25
2022-07-28T00:13:09.811Z,100187.31
2022-07-28T00:15:36.401Z,100190.28
2022-07-28T00:18:02.987Z,100189.69
2022-07-28T00:20:30.694Z,100187.16
2022-07-28T00:22:57.284Z,100187.38
2022-07-28T00:25:23.891Z,100185.09
2022-07-28T00:27:50.540Z,100180.88
2022-07-28T00:30:17.110Z,100173.09
2022-07-28T00:32:43.815Z,100176.69
2022-07-28T00:35:10.341Z,100176.09
2022-07-28T00:37:39.810Z,100172.72
2022-07-28T00:40:07.821Z,100171.50
2022-07-28T00:42:34.454Z,100170.25
2022-07-28T00:45:01.161Z,100172.63
2022-07-28T00:47:27.770Z,100173.06
2022-07-28T00:50:01.507Z,100169.91
2022-07-28T00:52:28.235Z,100164.91
2022-07-28T00:54:54.775Z,100167.66
2022-07-28T00:57:21.951Z,100160.06
2022-07-28T00:59:48.475Z,100155.63
2022-07-28T01:02:15.680Z,100163.28
2022-07-28T01:04:42.454Z,100163.09
2022-07-28T01:07:26.839Z,100163.13
2022-07-28T01:09:58.868Z,100162.75
2022-07-28T01:12:53.228Z,100176.28
2022-07-28T01:15:29.877Z,100180.75
2022-07-28T01:18:05.028Z,100176.97
2022-07-28T01:21:08.666Z,100180.84
2022-07-28T01:24:02.353Z,100173.50
2022-07-28T01:26:57.996Z,100180.47
2022-07-28T01:29:58.056Z,100187.03
2022-07-28T01:32:29.837Z,100186.25
2022-07-28T01:35:23.193Z,100193.63
2022-07-28T01:37:55.551Z,100178.25
2022-07-28T01:40:25.873Z,100189.28
2022-07-28T01:42:56.636Z,100178.53
2022-07-28T01:45:25.040Z,100181.34
2022-07-28T01:47:54.461Z,100185.16
2022-07-28T01:50:24.631Z,100190.19
2022-07-28T01:52:52.534Z,100178.63
2022-07-28T01:55:21.528Z,100176.75
2022-07-28T01:57:50.161Z,100182.03
2022-07-28T02:00:17.923Z,100178.88
2022-07-28T02:02:49.067Z,100182.28
2022-07-28T02:05:22.015Z,100168.78
2022-07-28T02:07:50.188Z,100161.22
2022-07-28T02:10:17.902Z,100168.19
2022-07-28T02:12:46.548Z,100164.22
2022-07-28T02:15:14.928Z,100168.63
2022-07-28T02:17:45.338Z,100165.25
2022-07-28T02:20:14.525Z,100172.84
2022-07-28T02:22:42.720Z,100176.81
2022-07-28T02:25:09.970Z,100174.50
2022-07-28T02:27:39.955Z,100176.81
2022-07-28T02:30:18.123Z,100171.56
2022-07-28T02:32:53.864Z,100168.81
2022-07-28T02:35:32.808Z,100166.28
2022-07-28T02:38:02.501Z,100175.13
2022-07-28T02:40:36.403Z,100176.78
2022-07-28T02:43:06.158Z,100189.63
2022-07-28T02:45:35.772Z,100186.47
2022-07-28T02:48:07.783Z,100176.97
2022-07-28T02:50:34.372Z,100183.50
2022-07-28T02:53:14.912Z,100185.38
2022-07-28T02:55:44.042Z,100184.75
2022-07-28T02:58:12.660Z,100191.22
2022-07-28T03:00:40.754Z,100189.94
2022-07-28T03:03:09.530Z,100190.69
2022-07-28T03:05:36.701Z,100200.38
2022-07-28T03:08:03.336Z,100203.91
2022-07-28T03:10:33.125Z,100207.91
2022-07-28T03:13:02.630Z,100203.50
2022-07-28T03:15:29.344Z,100211.72
2022-07-28T03:17:55.854Z,100210.50
2022-07-28T03:20:22.388Z,100208.00
2022-07-28T03:22:50.117Z,100212.00
2022-07-28T03:25:22.567Z,100209.06
2022-07-28T03:27:52.886Z,100202.97
2022-07-28T03:30:27.130Z,100205.06
2022-07-28T03:32:58.334Z,100211.63
2022-07-28T03:35:25.921Z,100209.16
2022-07-28T03:37:59.726Z,100216.06
2022-07-28T03:40:29.702Z,100221.09
2022-07-28T03:42:57.525Z,100223.06
2022-07-28T03:45:25.271Z,100223.47
2022-07-28T03:47:57.529Z,100228.53
2022-07-28T03:50:25.783Z,100229.56
2022-07-28T03:52:53.315Z,100231.06
2022-07-28T03:55:20.074Z,100234.63
2022-07-28T03:57:46.904Z,100229.28
2022-07-28T04:00:16.014Z,100233.06
2022-07-28T04:02:46.694Z,100238.16
2022-07-28T04:05:14.763Z,100234.38
2022-07-28T04:07:42.487Z,100236.00
2022-07-28T04:10:11.775Z,100232.44
2022-07-28T04:12:53.271Z,100232.69
2022-07-28T04:15:20.112Z,100236.84
2022-07-28T04:17:49.204Z,100232.44
2022-07-28T04:20:17.271Z,100236.44
2022-07-28T04:22:48.245Z,100238.56
2022-07-28T04:25:16.858Z,100240.69
2022-07-28T04:27:44.219Z,100251.66
2022-07-28T04:30:17.065Z,100243.69
2022-07-28T04:32:48.248Z,100237.63
2022-07-28T04:35:17.731Z,100244.97
2022-07-28T04:37:45.172Z,100244.22
2022-07-28T04:40:13.231Z,100245.47
2022-07-28T04:42:40.762Z,100242.50
2022-07-28T04:45:09.606Z,100248.81
2022-07-28T04:47:37.016Z,100244.41
2022-07-28T04:50:04.925Z,100251.34
2022-07-28T04:52:31.599Z,100250.28
2022-07-28T04:54:58.140Z,100250.06
2022-07-28T04:57:26.782Z,100247.53
2022-07-28T04:59:56.688Z,100251.75
2022-07-28T05:02:23.541Z,100258.06
2022-07-28T05:04:50.217Z,100255.13
2022-07-28T05:07:16.801Z,100249.44
2022-07-28T05:09:43.363Z,100255.53
2022-07-28T05:12:10.038Z,100259.13
2022-07-28T05:14:36.696Z,100261.22
2022-07-28T05:17:03.421Z,100270.69
2022-07-28T05:19:29.956Z,100271.13
2022-07-28T05:21:56.476Z,100275.56
2022-07-28T05:24:23.005Z,100270.28
2022-07-28T05:26:49.564Z,100271.94
2022-07-28T05:29:16.120Z,100276.13
2022-07-28T05:31:42.725Z,100273.78
2022-07-28T05:34:09.381Z,100276.91
2022-07-28T05:36:36.239Z,100278.31
2022-07-28T05:39:03.696Z,100285.03
2022-07-28T05:41:30.266Z,100278.22
2022-07-28T05:43:58.371Z,100282.22
2022-07-28T05:46:24.966Z,100286.59
2022-07-28T05:48:52.003Z,100291.00
2022-07-28T05:51:18.873Z,100296.22
2022-07-28T05:53:45.455Z,100297.63
2022-07-28T05:56:11.974Z,100294.84
2022-07-28T05:58:38.512Z,100296.25
2022-07-28T06:01:05.256Z,100300.41
2022-07-28T06:03:39.751Z,100299.09
2022-07-28T06:06:15.675Z,100298.13
2022-07-28T06:08:44.522Z,100303.13
2022-07-28T06:11:11.838Z,100304.09
2022-07-28T06:13:47.757Z,100300.22
2022-07-28T06:16:14.460Z,100303.66
2022-07-28T06:18:41.072Z,100308.66
2022-07-28T06:21:07.602Z,100312.31
2022-07-28T06:23:34.212Z,100307.94
2022-07-28T06:26:00.818Z,100310.00
2022-07-28T06:28:27.542Z,100316.97
2022-07-28T06:30:54.150Z,100313.97
2022-07-28T06:33:20.651Z,100315.66
2022-07-28T06:35:51.038Z,100307.19
2022-07-28T06:38:20.276Z,100317.31
2022-07-28T06:40:47.175Z,100320.44
2022-07-28T06:43:14.681Z,100327.41
2022-07-28T06:45:41.443Z,100326.97
2022-07-28T06:48:10.682Z,100326.72
2022-07-28T06:50:39.380Z,100320.16
2022-07-28T06:53:06.377Z,100322.41
2022-07-28T06:55:35.262Z,100327.69
2022-07-28T06:58:06.125Z,100321.50
2022-07-28T07:00:33.145Z,100323.78
2022-07-28T07:03:00.952Z,100324.75
2022-07-28T07:05:29.990Z,100329.34
2022-07-28T07:07:56.632Z,100332.63
2022-07-28T07:10:23.546Z,100334.56
2022-07-28T07:12:50.074Z,100328.75
2022-07-28T07:15:16.628Z,100333.44
2022-07-28T07:17:43.158Z,100335.72
2022-07-28T07:20:10.557Z,100329.50
2022-07-28T07:22:47.696Z,100332.13
2022-07-28T07:25:16.632Z,100332.84
2022-07-28T07:27:44.092Z,100344.88
2022-07-28T07:30:11.252Z,100339.00
2022-07-28T07:32:38.881Z,100338.06
2022-07-28T07:35:06.520Z,100334.84
2022-07-28T07:37:33.288Z,100340.72
2022-07-28T07:40:01.186Z,100334.00
2022-07-28T07:42:28.200Z,100331.50
2022-07-28T07:44:54.971Z,100329.66
2022-07-28T07:47:21.504Z,100334.81
2022-07-28T07:49:48.071Z,100336.13
2022-07-28T07:52:14.938Z,100336.81
2022-07-28T07:54:42.312Z,100328.22
2022-07-28T07:57:10.000Z,100328.66
2022-07-28T07:59:36.732Z,100332.72
2022-07-28T08:02:03.956Z,100335.69
2022-07-28T08:04:30.775Z,100335.53
2022-07-28T08:06:57.438Z,100328.09
2022-07-28T08:09:24.331Z,100336.72
2022-07-28T08:11:51.031Z,100330.72
2022-07-28T08:14:18.293Z,100327.81
2022-07-28T08:16:45.198Z,100329.47
2022-07-28T08:19:11.863Z,100338.47
2022-07-28T08:21:38.559Z,100334.66
2022-07-28T08:24:05.534Z,100331.91
2022-07-28T08:26:32.078Z,100332.81
2022-07-28T08:28:58.620Z,100328.06
2022-07-28T08:31:26.506Z,100331.41
2022-07-28T08:33:54.558Z,100331.59
2022-07-28T08:36:21.935Z,100329.00
2022-07-28T08:38:48.450Z,100327.72
2022-07-28T08:41:22.835Z,100328.41
2022-07-28T08:43:52.705Z,100330.75
2022-07-28T08:46:21.115Z,100329.00
2022-07-28T08:48:48.257Z,100333.91
2022-07-28T08:51:15.999Z,100326.38
2022-07-28T08:53:43.255Z,100329.03
2022-07-28T08:56:13.966Z,100322.53
2022-07-28T08:58:40.960Z,100323.78
2022-07-28T09:01:08.953Z,100325.25
2022-07-28T09:03:36.491Z,100321.22
2022-07-28T09:06:03.857Z,100312.47
2022-07-28T09:08:30.459Z,100316.91
2022-07-28T09:10:57.088Z,100322.81
2022-07-28T09:13:23.651Z,100316.84
2022-07-28T09:15:50.470Z,100323.66
2022-07-28T09:18:17.946Z,100313.84
2022-07-28T09:20:45.403Z,100314.16
2022-07-28T09:23:42.756Z,100316.13
2022-07-28T09:26:12.062Z,100306.75
2022-07-28T09:28:54.554Z,100302.63
2022-07-28T09:31:22.790Z,100303.88
2022-07-28T09:34:05.634Z,100305.38
2022-07-28T09:36:40.334Z,100305.19
2022-07-28T09:39:07.711Z,100301.31
2022-07-28T09:41:50.976Z,100298.28
2022-07-28T09:44:21.678Z,100295.53
2022-07-28T09:46:48.625Z,100293.13
2022-07-28T09:49:15.560Z,100291.25
2022-07-28T09:51:42.557Z,100288.56
2022-07-28T09:54:18.397Z,100291.41
2022-07-28T09:56:45.688Z,100287.59
2022-07-28T09:59:14.980Z,100289.81
2022-07-28T10:02:12.791Z,100283.75
2022-07-28T10:04:41.609Z,100280.72
2022-07-28T10:07:11.428Z,100281.53
2022-07-28T10:09:38.903Z,100284.31
2022-07-28T10:12:22.959Z,100287.94
2022-07-28T10:14:51.956Z,100281.88
2022-07-28T10:17:26.952Z,100282.19
2022-07-28T10:19:55.149Z,100279.09
2022-07-28T10:22:23.590Z,100273.28
2022-07-28T10:24:53.005Z,100271.06
2022-07-28T10:27:27.779Z,100269.94
2022-07-28T10:30:03.610Z,100266.00
2022-07-28T10:32:38.202Z,100266.50
2022-07-28T10:35:15.945Z,100267.59
2022-07-28T10:38:00.052Z,100259.16
2022-07-28T10:40:31.976Z,100256.00
2022-07-28T10:43:00.310Z,100258.16
2022-07-28T10:45:47.950Z,100255.56
2022-07-28T10:48:15.412Z,100252.66
2022-07-28T10:50:42.895Z,100246.41
2022-07-28T10:53:11.706Z,100253.13
2022-07-28T10:55:59.751Z,100254.06
2022-07-28T10:59:01.427Z,100246.03
2022-07-28T11:01:50.090Z,100239.91
2022-07-28T11:04:46.168Z,100241.47
2022-07-28T11:07:14.985Z,100240.41
2022-07-28T11:09:41.627Z,100228.66
2022-07-28T11:12:09.875Z,100234.09
2022-07-28T11:14:39.169Z,100228.75
2022-07-28T11:17:05.774Z,100219.03
2022-07-28T11:22:34.368Z,100232.63
2022-07-28T11:25:20.511Z,100222.28
2022-07-28T11:27:51.547Z,100222.19
2022-07-28T11:30:35.850Z,100222.72
2022-07-28T11:33:04.631Z,100227.47
2022-07-28T11:35:52.048Z,100218.53
2022-07-28T11:38:19.127Z,100219.28
2022-07-28T11:40:47.608Z,100219.06
2022-07-28T11:43:35.488Z,100226.59
2022-07-28T11:46:04.580Z,100222.88
2022-07-28T11:48:33.736Z,100227.22
2022-07-28T11:51:03.413Z,100220.19
2022-07-28T11:53:33.273Z,100215.03
2022-07-28T11:56:03.299Z,100210.44
2022-07-28T11:58:30.143Z,100209.78
2022-07-28T12:01:20.027Z,100203.84
2022-07-28T12:03:54.969Z,100205.56
2022-07-28T12:06:28.637Z,100198.78
2022-07-28T12:09:01.407Z,100200.16
2022-07-28T12:11:31.830Z,100205.63
2022-07-28T12:14:03.012Z,100197.16
2022-07-28T12:16:30.803Z,100187.66
2022-07-28T12:19:00.745Z,100193.44
2022-07-28T12:21:47.963Z,100193.47
2022-07-28T12:24:18.583Z,100195.50
2022-07-28T12:26:49.171Z,100194.94
2022-07-28T12:29:17.416Z,100198.31
2022-07-28T12:32:00.900Z,100199.13
2022-07-28T12:34:29.608Z,100189.41
2022-07-28T12:37:04.479Z,100192.53
2022-07-28T12:39:36.714Z,100180.63
2022-07-28T12:42:05.942Z,100180.56
2022-07-28T12:44:35.146Z,100184.22
2022-07-28T12:47:02.816Z,100182.03
2022-07-28T12:49:29.384Z,100185.69
2022-07-28T12:51:58.193Z,100184.78
2022-07-28T12:54:36.047Z,100185.59
2022-07-28T12:57:03.625Z,100174.66
2022-07-28T12:59:35.420Z,100177.25
2022-07-28T13:02:05.518Z,100173.56
2022-07-28T13:04:42.567Z,100173.22
2022-07-28T13:07:32.018Z,100178.72
2022-07-28T13:10:07.258Z,100168.47
2022-07-28T13:12:39.319Z,100171.00
2022-07-28T13:15:16.359Z,100176.56
2022-07-28T13:17:51.152Z,100175.50
2022-07-28T13:20:18.601Z,100178.03
2022-07-28T13:22:45.695Z,100169.56
2022-07-28T13:25:13.374Z,100168.97
2022-07-28T13:27:41.248Z,100165.44
2022-07-28T13:30:09.599Z,100168.56
2022-07-28T13:32:37.008Z,100163.91
2022-07-28T13:35:06.088Z,100165.22
2022-07-28T13:37:41.501Z,100166.84
2022-07-28T13:40:08.846Z,100160.84
2022-07-28T13:42:35.435Z,100160.97
2022-07-28T13:45:05.089Z,100160.53
2022-07-28T13:47:35.617Z,100154.50
2022-07-28T13:50:06.696Z,100150.41
2022-07-28T13:52:37.290Z,100148.22
2022-07-28T13:55:06.093Z,100148.16
2022-07-28T13:57:36.358Z,100145.31
2022-07-28T14:00:08.048Z,100138.28
2022-07-28T14:02:35.735Z,100144.53
2022-07-28T14:05:02.668Z,100150.56
2022-07-28T14:07:29.311Z,100138.63
2022-07-28T14:09:55.843Z,100135.47
2022-07-28T14:12:22.477Z,100138.13
2022-07-28T14:14:51.475Z,100136.00
2022-07-28T14:20:10.310Z,100133.75
2022-07-28T14:22:36.846Z,100136.03
2022-07-28T14:25:03.782Z,100131.97
2022-07-28T14:27:30.615Z,100129.69
2022-07-28T14:29:57.206Z,100125.53
2022-07-28T14:32:23.839Z,100126.75
2022-07-28T14:34:50.770Z,100130.44
2022-07-28T14:37:17.852Z,100129.72
2022-07-28T14:39:44.653Z,100130.59
2022-07-28T14:42:11.791Z,100119.25
2022-07-28T14:44:38.346Z,100115.97
2022-07-28T14:47:06.557Z,100108.88
2022-07-28T14:49:34.559Z,100107.75
2022-07-28T14:52:01.274Z,100118.50
2022-07-28T14:54:27.963Z,100104.03
2022-07-28T14:56:54.884Z,100106.88
2022-07-28T14:59:21.611Z,100112.72
2022-07-28T15:01:48.943Z,100106.19
2022-07-28T15:04:16.455Z,100106.19
2022-07-28T15:06:43.394Z,100105.38
2022-07-28T15:09:10.213Z,100102.53
2022-07-28T15:11:37.526Z,100107.16
2022-07-28T15:14:04.507Z,100097.91
2022-07-28T15:16:31.368Z,100098.94
2022-07-28T15:18:58.311Z,100106.34
2022-07-28T15:21:25.103Z,100100.56
2022-07-28T15:23:51.770Z,100092.66
2022-07-28T15:26:18.307Z,100096.59
2022-07-28T15:28:48.301Z,100097.44
2022-07-28T15:31:15.984Z,100098.78
2022-07-28T15:33:48.268Z,100088.34
2022-07-28T15:36:18.464Z,100094.44
2022-07-28T15:38:47.482Z,100092.84
2022-07-28T15:41:16.776Z,100087.78
2022-07-28T15:43:43.963Z,100092.97
2022-07-28T15:46:13.023Z,100084.50
2022-07-28T15:48:41.742Z,100084.69
2022-07-28T15:51:09.204Z,100085.94
2022-07-28T15:53:36.658Z,100085.88
2022-07-28T15:56:04.679Z,100090.94
2022-07-28T15:58:31.834Z,100089.47
2022-07-28T16:01:00.940Z,100086.34
2022-07-28T16:03:28.733Z,100093.16
2022-07-28T16:05:55.337Z,100093.66
2022-07-28T16:08:23.300Z,100087.97
2022-07-28T16:10:51.612Z,100090.56
2022-07-28T16:13:33.310Z,100083.88
2022-07-28T16:16:12.467Z,100084.91
2022-07-28T16:18:42.831Z,100085.81
2022-07-28T16:21:10.659Z,100089.69
2022-07-28T16:23:37.183Z,100080.34
2022-07-28T16:26:07.786Z,100086.03
2022-07-28T16:28:35.491Z,100088.22
2022-07-28T16:31:02.217Z,100086.22
2022-07-28T16:33:33.596Z,100086.75
2022-07-28T16:36:01.281Z,100087.91
2022-07-28T16:38:27.839Z,100089.47
2022-07-28T16:40:54.437Z,100085.03
2022-07-28T16:43:21.024Z,100086.88
2022-07-28T16:45:47.552Z,100090.34
2022-07-28T16:48:15.311Z,100093.69
2022-07-28T16:50:45.847Z,100096.66
2022-07-28T16:53:13.836Z,100097.66
2022-07-28T16:55:42.137Z,100095.53
2022-07-28T16:58:08.812Z,100094.84
2022-07-28T17:00:35.499Z,100084.88
2022-07-28T17:03:02.036Z,100094.56
2022-07-28T17:05:28.550Z,100089.38
2022-07-28T17:07:55.117Z,100096.19
2022-07-28T17:10:27.217Z,100099.03
2022-07-28T17:12:54.775Z,100098.22
2022-07-28T17:15:22.667Z,100094.59
2022-07-28T17:17:51.043Z,100101.88
2022-07-28T17:20:17.686Z,100100.88
2022-07-28T17:22:44.920Z,100097.97
2022-07-28T17:25:35.566Z,100104.78
2022-07-28T17:27:58.610Z,100110.34
2022-07-28T17:30:25.315Z,100101.66
2022-07-28T17:32:52.865Z,100100.06
2022-07-28T17:35:34.424Z,100102.56
2022-07-28T17:38:02.658Z,100101.44
2022-07-28T17:40:30.306Z,100105.06
2022-07-28T17:42:58.554Z,100104.78
2022-07-28T17:45:25.166Z,100100.31
2022-07-28T17:47:52.070Z,100101.63
2022-07-28T17:50:19.623Z,100104.91
2022-07-28T17:52:46.602Z,100107.88
2022-07-28T17:55:40.664Z,100109.19
2022-07-28T17:58:29.164Z,100104.94
2022-07-28T18:01:11.066Z,100115.38
2022-07-28T18:03:56.631Z,100111.63
2022-07-28T18:06:32.261Z,100109.16
2022-07-28T18:09:05.284Z,100110.09
2022-07-28T18:11:33.439Z,100111.03
2022-07-28T18:14:04.007Z,100111.97
2022-07-28T18:16:31.382Z,100108.44
2022-07-28T18:18:58.132Z,100111.28
2022-07-28T18:21:26.459Z,100121.94
2022-07-28T18:23:53.096Z,100117.84
2022-07-28T18:26:21.991Z,100130.13
2022-07-28T18:28:48.840Z,100136.53
2022-07-28T18:31:15.525Z,100140.97
2022-07-28T18:33:42.122Z,100145.13
2022-07-28T18:36:08.740Z,100139.56
2022-07-28T18:38:35.286Z,100142.91
2022-07-28T18:41:01.845Z,100138.72
2022-07-28T18:43:28.393Z,100145.88
2022-07-28T18:45:54.999Z,100141.66
2022-07-28T18:48:21.630Z,100147.41
2022-07-28T18:50:48.150Z,100155.91
2022-07-28T18:53:15.105Z,100162.50
2022-07-28T18:55:41.739Z,100162.09
2022-07-28T18:58:08.408Z,100167.31
2022-07-28T19:00:35.109Z,100163.25
2022-07-28T19:03:01.710Z,100164.28
2022-07-28T19:05:36.666Z,100172.75
2022-07-28T19:08:04.957Z,100168.41
2022-07-28T19:10:32.385Z,100173.81
2022-07-28T19:12:59.543Z,100180.19
2022-07-28T19:15:26.206Z,100176.72
2022-07-28T19:18:11.459Z,100174.69
2022-07-28T19:20:43.991Z,100177.31
2022-07-28T19:23:10.566Z,100176.50
2022-07-28T19:25:38.791Z,100173.56
2022-07-28T19:28:06.063Z,100170.38
2022-07-28T19:30:32.769Z,100172.66
2022-07-28T19:32:59.814Z,100175.59
2022-07-28T19:35:26.516Z,100175.06
2022-07-28T19:37:53.261Z,100182.94
2022-07-28T19:40:19.916Z,100187.88
2022-07-28T19:42:52.171Z,100188.31
2022-07-28T19:45:18.931Z,100189.31
2022-07-28T19:47:45.471Z,100206.34
2022-07-28T19:50:16.406Z,100195.94
2022-07-28T19:52:43.007Z,100189.50
2022-07-28T19:55:09.687Z,100197.31
2022-07-28T19:57:36.513Z,100201.81
2022-07-28T20:00:04.542Z,100202.19
2022-07-28T20:02:31.161Z,100193.50
2022-07-28T20:04:57.695Z,100203.97
2022-07-28T20:07:25.322Z,100202.41
2022-07-28T20:09:51.861Z,100211.41
2022-07-28T20:12:18.708Z,100213.31
2022-07-28T20:14:45.259Z,100219.78
2022-07-28T20:17:29.605Z,100208.38
2022-07-28T20:19:58.976Z,100210.66
2022-07-28T20:22:25.772Z,100212.69
2022-07-28T20:24:52.305Z,100213.44
2022-07-28T20:27:18.898Z,100216.06
2022-07-28T20:29:45.418Z,100203.97
2022-07-28T20:32:11.977Z,100209.81
2022-07-28T20:34:38.612Z,100213.28
2022-07-28T20:37:05.368Z,100213.34
2022-07-28T20:39:44.394Z,100221.22
2022-07-28T20:42:11.727Z,100221.88
2022-07-28T20:44:38.527Z,100219.94
2022-07-28T20:47:05.357Z,100229.13
2022-07-28T20:49:32.116Z,100218.56
2022-07-28T20:51:58.775Z,100229.75
2022-07-28T20:54:26.477Z,100230.19
2022-07-28T20:56:53.733Z,100231.94
2022-07-28T20:59:20.282Z,100228.22
2022-07-28T21:01:46.920Z,100233.78
2022-07-28T21:04:13.911Z,100227.44
2022-07-28T21:06:51.232Z,100233.03
2022-07-28T21:09:19.403Z,100234.00
2022-07-28T21:11:45.941Z,100231.56
2022-07-28T21:14:12.620Z,100229.97
2022-07-28T21:16:39.485Z,100233.16
2022-07-28T21:19:06.146Z,100233.63
2022-07-28T21:21:32.736Z,100237.28
2022-07-28T21:23:59.269Z,100241.53
2022-07-28T21:26:25.814Z,100240.06
2022-07-28T21:29:11.007Z,100239.66
2022-07-28T21:32:03.851Z,100243.31
2022-07-28T21:34:26.935Z,100245.28
2022-07-28T21:36:56.970Z,100253.56
2022-07-28T21:39:23.479Z,100254.84
2022-07-28T21:41:50.057Z,100263.97
2022-07-28T21:44:16.723Z,100261.91
2022-07-28T21:46:45.768Z,100272.50
2022-07-28T21:49:13.051Z,100270.25
2022-07-28T21:51:40.059Z,100279.59
2022-07-28T21:54:06.885Z,100279.22
2022-07-28T21:56:34.892Z,100274.22
2022-07-28T21:59:02.425Z,100280.56
2022-07-28T22:01:29.308Z,100280.44
2022-07-28T22:03:56.625Z,100281.06
2022-07-28T22:06:23.271Z,100294.38
2022-07-28T22:08:53.671Z,100291.22
2022-07-28T22:11:21.780Z,100291.22
2022-07-28T22:13:48.507Z,100296.31
2022-07-28T22:16:15.455Z,100306.41
2022-07-28T22:18:42.082Z,100310.22
2022-07-28T22:21:08.647Z,100311.94
2022-07-28T22:23:35.165Z,100312.34
2022-07-28T22:26:01.959Z,100306.66
2022-07-28T22:28:30.704Z,100312.59
2022-07-28T22:30:58.849Z,100301.44
2022-07-28T22:33:36.103Z,100307.13
2022-07-28T22:36:04.232Z,100303.31
2022-07-28T22:38:30.858Z,100300.38
2022-07-28T22:40:57.379Z,100293.22
2022-07-28T22:43:23.902Z,100301.03
2022-07-28T22:45:51.689Z,100294.72
2022-07-28T22:48:18.863Z,100293.44
2022-07-28T22:50:45.583Z,100293.44
2022-07-28T22:53:12.156Z,100295.97
2022-07-28T22:58:23.850Z,100292.16
2022-07-28T23:00:51.462Z,100288.75
2022-07-28T23:03:18.658Z,100282.41
2022-07-28T23:05:45.358Z,100290.84
2022-07-28T23:08:11.982Z,100289.13
2022-07-28T23:10:39.722Z,100294.81
2022-07-28T23:13:06.699Z,100294.16
2022-07-28T23:15:40.517Z,100288.88
2022-07-28T23:18:10.649Z,100292.84
2022-07-28T23:20:38.819Z,100298.50
2022-07-28T23:23:06.067Z,100300.84
2022-07-28T23:25:33.105Z,100299.56
2022-07-28T23:28:00.670Z,100295.09
2022-07-28T23:30:27.331Z,100296.16
2022-07-28T23:32:54.002Z,100295.72
2022-07-28T23:35:20.655Z,100301.22
2022-07-28T23:37:47.419Z,100303.53
2022-07-28T23:40:14.446Z,100298.91
2022-07-28T23:42:41.109Z,100303.94
2022-07-28T23:45:09.177Z,100311.34
2022-07-28T23:47:35.945Z,100305.00
2022-07-28T23:50:04.565Z,100305.00
2022-07-28T23:52:31.231Z,100309.66
2022-07-28T23:54:57.903Z,100305.84
2022-07-28T23:57:24.501Z,100305.84
2022-07-28T23:59:51.180Z,100301.44
